Time;durP1;ratioP1;P1;durP2;ratioP2;P2;SDS_P1;SDS_P2;PMS_P1;PMS_P2;Temp;Humidity;BMP_temperature;BMP_pressure;BME280_temperature;BME280_humidity;BME280_pressure;Samples;Min_cycle;Max_cycle;Signal;HPM_P1;HPM_P2
2023/12/04 00:00:23;;;;;;;5.63;5.22;;;;;;;1.62;57.26;95400.72;5058175;28;20235;-68
2023/12/04 00:02:53;;;;;;;6.07;5.63;;;;;;;1.55;56.59;95402.97;5058566;28;20247;-68
2023/12/04 00:05:20;;;;;;;6.72;6.22;;;;;;;1.53;57.04;95397.03;5075386;28;20189;-68
2023/12/04 00:07:47;;;;;;;6.35;5.95;;;;;;;1.54;57.17;95410.31;5075441;28;20630;-68
2023/12/04 00:10:14;;;;;;;6.07;5.60;;;;;;;1.54;56.78;95410.31;5075502;28;20299;-68
2023/12/04 00:12:41;;;;;;;6.47;6.00;;;;;;;1.56;57.41;95419.00;5075645;28;20330;-68
2023/12/04 00:15:12;;;;;;;6.88;6.28;;;;;;;1.57;57.10;95417.91;5056214;28;20252;-68
2023/12/04 00:17:39;;;;;;;6.07;5.65;;;;;;;1.57;56.30;95419.81;5058829;28;20197;-68
2023/12/04 00:20:13;;;;;;;6.10;5.70;;;;;;;1.50;56.54;95422.06;5058554;28;20212;-68
2023/12/04 00:22:40;;;;;;;6.60;6.10;;;;;;;1.49;55.87;95431.28;5058394;28;20604;-68
2023/12/04 00:25:08;;;;;;;6.43;5.93;;;;;;;1.51;55.97;95439.97;5075228;28;20575;-68
2023/12/04 00:27:35;;;;;;;7.63;7.03;;;;;;;1.56;56.83;95431.75;5058492;28;20561;-68
2023/12/04 00:30:04;;;;;;;6.57;6.07;;;;;;;1.62;56.56;95436.88;5075302;28;20220;-68
2023/12/04 00:32:32;;;;;;;6.45;5.95;;;;;;;1.54;55.74;95439.41;5074735;28;20213;-68
2023/12/04 00:34:59;;;;;;;6.32;5.93;;;;;;;1.59;56.63;95444.78;5057385;28;20251;-68
2023/12/04 00:37:31;;;;;;;7.25;6.75;;;;;;;1.61;55.89;95437.97;5058055;28;20239;-68
2023/12/04 00:39:58;;;;;;;6.47;5.97;;;;;;;1.62;56.11;95438.78;5075363;28;20185;-68
2023/12/04 00:42:25;;;;;;;6.45;5.95;;;;;;;1.58;56.06;95443.97;5058478;28;20232;-68
2023/12/04 00:44:52;;;;;;;7.03;6.43;;;;;;;1.60;56.79;95443.72;5041625;28;20200;-68
2023/12/04 00:47:22;;;;;;;6.72;6.22;;;;;;;1.60;56.40;95443.72;5074936;28;20232;-68
2023/12/04 00:49:53;;;;;;;6.68;6.18;;;;;;;1.62;55.95;95449.66;5057270;28;20276;-68
2023/12/04 00:52:20;;;;;;;6.63;6.13;;;;;;;1.61;56.21;95450.75;5074443;28;20209;-68
2023/12/04 00:54:47;;;;;;;6.57;6.03;;;;;;;1.53;55.59;95448.69;5075062;28;20337;-68
2023/12/04 00:57:14;;;;;;;7.25;6.65;;;;;;;1.56;56.11;95457.06;5075150;28;20513;-68
2023/12/04 00:59:42;;;;;;;6.72;6.22;;;;;;;1.54;54.87;95453.00;5075159;28;20242;-68
2023/12/04 01:02:09;;;;;;;6.90;6.40;;;;;;;1.51;54.94;95456.28;5040721;28;20241;-68
2023/12/04 01:04:40;;;;;;;7.03;6.50;;;;;;;1.48;55.21;95454.94;5057405;28;20599;-68
2023/12/04 01:07:09;;;;;;;6.10;5.65;;;;;;;1.53;55.09;95465.00;5074782;28;20617;-67
2023/12/04 01:09:36;;;;;;;6.50;6.00;;;;;;;1.48;54.60;95457.66;5074765;28;20231;-67
2023/12/04 01:12:05;;;;;;;6.30;5.90;;;;;;;1.48;54.92;95454.16;5074709;28;20220;-68
2023/12/04 01:14:33;;;;;;;7.07;6.57;;;;;;;1.48;54.96;95460.38;5084275;28;20297;-68
2023/12/04 01:17:01;;;;;;;6.60;6.10;;;;;;;1.49;54.55;95462.03;5077019;28;20204;-68
2023/12/04 01:19:31;;;;;;;6.68;6.18;;;;;;;1.49;55.33;95456.59;5094804;28;20220;-68
2023/12/04 01:21:58;;;;;;;6.93;6.43;;;;;;;1.49;54.96;95463.91;5077401;28;20203;-68
2023/12/04 01:24:26;;;;;;;6.80;6.20;;;;;;;1.47;55.31;95464.22;5095361;28;20227;-68
2023/12/04 01:26:54;;;;;;;6.75;6.25;;;;;;;1.47;55.44;95472.38;5077674;28;20235;-68
2023/12/04 01:29:21;;;;;;;6.88;6.35;;;;;;;1.44;55.07;95465.59;5094899;28;20241;-68
2023/12/04 01:31:48;;;;;;;6.13;5.70;;;;;;;1.41;55.25;95477.03;5095331;28;20263;-68
2023/12/04 01:34:15;;;;;;;6.82;6.32;;;;;;;1.36;54.78;95474.34;5077413;28;20232;-68
2023/12/04 01:36:42;;;;;;;6.47;5.97;;;;;;;1.37;54.63;95465.09;5095178;28;20263;-68
2023/12/04 01:39:12;;;;;;;6.40;5.95;;;;;;;1.40;55.39;95469.97;5094910;28;20289;-68
2023/12/04 01:41:42;;;;;;;5.97;5.50;;;;;;;1.41;54.94;95476.22;5094847;28;20195;-68
2023/12/04 01:44:09;;;;;;;6.50;6.00;;;;;;;1.38;54.35;95474.06;5094880;28;20259;-68
2023/12/04 01:46:39;;;;;;;6.50;6.00;;;;;;;1.34;55.11;95473.00;5095107;28;20219;-67
2023/12/04 01:49:06;;;;;;;5.72;5.32;;;;;;;1.31;55.51;95484.47;5077164;28;20197;-67
2023/12/04 01:51:36;;;;;;;5.80;5.30;;;;;;;1.30;54.45;95478.22;5077603;28;20193;-68
2023/12/04 01:54:04;;;;;;;5.82;5.43;;;;;;;1.35;54.81;95477.38;5077155;28;20206;-68
2023/12/04 01:56:31;;;;;;;6.05;5.55;;;;;;;1.34;54.55;95481.97;5076977;28;20707;-68
2023/12/04 01:59:02;;;;;;;6.05;5.65;;;;;;;1.38;55.19;95483.06;5094525;28;20561;-68
2023/12/04 02:01:33;;;;;;;6.10;5.63;;;;;;;1.37;54.78;95473.25;5093993;28;20212;-68
2023/12/04 02:04:05;;;;;;;6.68;6.18;;;;;;;1.39;54.95;95484.66;5095713;28;20238;-68
2023/12/04 02:06:32;;;;;;;6.38;5.88;;;;;;;1.36;55.15;95479.78;5098463;28;20273;-68
2023/12/04 02:09:00;;;;;;;6.60;6.10;;;;;;;1.33;55.27;95487.69;5097971;28;20216;-68
2023/12/04 02:11:27;;;;;;;5.88;5.47;;;;;;;1.25;54.58;95485.59;5080951;28;20212;-68
2023/12/04 02:13:55;;;;;;;6.75;6.25;;;;;;;1.20;54.59;95487.28;5074077;28;20253;-68
2023/12/04 02:16:25;;;;;;;6.57;6.07;;;;;;;1.12;55.37;95492.47;5077447;28;20205;-68
2023/12/04 02:18:52;;;;;;;6.50;6.00;;;;;;;1.06;55.45;95496.34;5077953;28;20264;-68
2023/12/04 02:21:19;;;;;;;6.20;5.80;;;;;;;1.08;55.13;95496.84;5060482;28;20197;-68
2023/12/04 02:23:50;;;;;;;6.47;5.97;;;;;;;1.02;55.34;95500.69;5060235;28;20193;-68
2023/12/04 02:26:20;;;;;;;6.50;6.00;;;;;;;1.03;55.36;95515.91;5077722;28;20177;-68
2023/12/04 02:28:51;;;;;;;6.00;5.60;;;;;;;1.04;55.36;95510.19;5060600;28;20211;-68
2023/12/04 02:31:20;;;;;;;5.82;5.43;;;;;;;1.07;55.25;95509.63;5060348;28;20204;-68
2023/12/04 02:33:52;;;;;;;6.22;5.82;;;;;;;1.08;55.00;95508.53;5077626;28;20213;-68
2023/12/04 02:36:20;;;;;;;5.82;5.43;;;;;;;1.11;54.81;95512.59;5059786;28;20212;-68
2023/12/04 02:38:52;;;;;;;6.05;5.65;;;;;;;1.12;54.93;95515.03;5078269;28;20193;-68
2023/12/04 02:41:19;;;;;;;6.15;5.70;;;;;;;1.09;54.95;95510.16;5060199;28;20521;-68
2023/12/04 02:43:46;;;;;;;5.28;4.95;;;;;;;1.12;54.74;95514.22;5059858;28;20201;-68
2023/12/04 02:46:13;;;;;;;5.65;5.25;;;;;;;1.12;54.72;95517.72;5077015;28;20205;-68
2023/12/04 02:48:41;;;;;;;5.80;5.40;;;;;;;1.05;55.03;95517.22;5077252;28;20217;-68
2023/12/04 02:51:08;;;;;;;6.00;5.60;;;;;;;1.05;54.95;95519.16;5059671;28;20225;-68
2023/12/04 02:53:36;;;;;;;5.88;5.38;;;;;;;0.97;54.94;95509.69;5059727;28;20235;-68
2023/12/04 02:56:08;;;;;;;6.43;5.93;;;;;;;0.95;55.28;95520.84;5076761;28;20639;-68
2023/12/04 02:58:37;;;;;;;5.85;5.45;;;;;;;0.94;55.29;95516.53;5076765;28;20616;-68
2023/12/04 03:01:07;;;;;;;5.63;5.22;;;;;;;0.95;55.64;95512.69;5059448;28;20287;-68
2023/12/04 03:03:34;;;;;;;5.90;5.43;;;;;;;0.93;55.23;95516.78;5059373;28;20249;-69
2023/12/04 03:06:02;;;;;;;6.22;5.72;;;;;;;0.96;55.42;95521.66;5059369;28;20209;-69
2023/12/04 03:08:33;;;;;;;5.97;5.50;;;;;;;0.99;54.91;95521.09;5060118;28;20677;-68
2023/12/04 03:11:02;;;;;;;5.97;5.57;;;;;;;0.99;54.30;95518.38;5076884;28;20182;-68
2023/12/04 03:13:31;;;;;;;5.45;5.03;;;;;;;0.93;54.08;95520.31;5060156;28;20215;-68
2023/12/04 03:15:58;;;;;;;5.80;5.40;;;;;;;0.90;54.04;95522.78;5078915;28;20220;-68
2023/12/04 03:18:25;;;;;;;5.75;5.35;;;;;;;0.88;53.99;95525.78;5096683;28;20214;-68
2023/12/04 03:20:56;;;;;;;5.63;5.22;;;;;;;0.81;54.20;95528.00;5079761;28;20181;-68
2023/12/04 03:23:23;;;;;;;6.05;5.65;;;;;;;0.84;54.26;95529.34;5097196;28;20250;-68
2023/12/04 03:25:50;;;;;;;6.22;5.63;;;;;;;0.86;54.69;95529.84;5096774;28;20216;-68
2023/12/04 03:28:18;;;;;;;5.70;5.30;;;;;;;0.82;54.27;95526.09;5096839;28;20252;-68
2023/12/04 03:30:46;;;;;;;6.10;5.70;;;;;;;0.80;54.92;95539.13;5096506;28;20185;-68
2023/12/04 03:33:16;;;;;;;5.80;5.40;;;;;;;0.80;54.45;95530.97;5079513;28;20226;-68
2023/12/04 03:35:43;;;;;;;6.10;5.60;;;;;;;0.79;54.96;95532.88;5078509;28;20236;-68
2023/12/04 03:38:10;;;;;;;6.10;5.60;;;;;;;0.70;55.18;95526.41;5096563;28;20204;-68
2023/12/04 03:40:40;;;;;;;5.97;5.57;;;;;;;0.71;55.12;95530.75;5078695;28;20272;-68
2023/12/04 03:43:13;;;;;;;5.65;5.25;;;;;;;0.70;55.04;95534.56;5078343;28;20249;-68
2023/12/04 03:45:40;;;;;;;6.20;5.70;;;;;;;0.63;54.98;95528.63;5096135;28;20224;-68
2023/12/04 03:48:14;;;;;;;6.03;5.63;;;;;;;0.60;55.30;95537.31;5079023;28;20224;-68
2023/12/04 03:50:42;;;;;;;6.57;6.07;;;;;;;0.55;55.27;95537.34;5078486;28;20232;-68
2023/12/04 03:53:09;;;;;;;7.22;6.63;;;;;;;0.51;55.22;95537.09;5096319;28;20231;-68
2023/12/04 03:55:36;;;;;;;6.93;6.43;;;;;;;0.50;55.21;95537.38;5096660;28;20232;-68
2023/12/04 03:58:04;;;;;;;6.50;6.00;;;;;;;0.51;55.06;95544.41;5078759;28;20227;-69
2023/12/04 04:00:31;;;;;;;6.47;5.97;;;;;;;0.47;55.20;95531.41;5096285;28;20215;-68
2023/12/04 04:02:58;;;;;;;6.45;5.95;;;;;;;0.42;54.91;95531.41;5096406;28;20215;-69
2023/12/04 04:05:29;;;;;;;5.95;5.55;;;;;;;0.34;55.43;95526.56;5078326;28;20599;-68
2023/12/04 04:07:56;;;;;;;6.40;5.90;;;;;;;0.35;55.66;95539.03;5095736;28;20195;-68
2023/12/04 04:10:26;;;;;;;6.40;5.90;;;;;;;0.33;55.27;95543.94;5096620;28;20238;-68
2023/12/04 04:12:53;;;;;;;6.40;5.90;;;;;;;0.34;55.66;95539.34;5078175;28;20226;-69
2023/12/04 04:15:20;;;;;;;6.35;5.85;;;;;;;0.35;55.29;95533.63;5093722;28;20671;-69
2023/12/04 04:17:47;;;;;;;6.75;6.25;;;;;;;0.33;55.92;95543.94;5095997;28;20235;-69
2023/12/04 04:20:16;;;;;;;5.82;5.43;;;;;;;0.35;55.55;95551.81;5095897;28;20208;-69
2023/12/04 04:22:46;;;;;;;5.97;5.47;;;;;;;0.33;55.13;95543.16;5078059;28;20262;-69
2023/12/04 04:25:13;;;;;;;6.55;6.05;;;;;;;0.30;55.17;95547.22;5078792;28;20208;-68
2023/12/04 04:27:44;;;;;;;6.80;6.28;;;;;;;0.31;55.47;95554.25;5078313;28;20200;-68
2023/12/04 04:30:13;;;;;;;6.63;6.13;;;;;;;0.31;55.60;95559.69;5095355;28;20185;-68
2023/12/04 04:32:40;;;;;;;6.82;6.22;;;;;;;0.27;54.89;95553.19;5095415;28;20196;-68
2023/12/04 04:35:11;;;;;;;6.57;6.05;;;;;;;0.25;55.46;95558.06;5078132;28;20204;-68
2023/12/04 04:37:39;;;;;;;6.70;6.10;;;;;;;0.26;55.66;95554.28;5095418;28;20197;-69
2023/12/04 04:40:10;;;;;;;6.30;5.80;;;;;;;0.23;55.22;95557.53;5095537;28;20214;-69
2023/12/04 04:42:38;;;;;;;6.43;5.93;;;;;;;0.22;54.86;95559.44;5076732;28;20215;-69
2023/12/04 04:45:09;;;;;;;6.28;5.78;;;;;;;0.21;54.87;95562.41;5075417;28;20246;-69
2023/12/04 04:47:36;;;;;;;6.53;6.03;;;;;;;0.20;55.86;95566.22;5077429;28;20231;-69
2023/12/04 04:50:03;;;;;;;5.75;5.32;;;;;;;0.15;55.32;95571.69;5077921;28;20204;-69
2023/12/04 04:52:34;;;;;;;7.15;6.43;;;;;;;0.18;55.86;95576.53;5077901;28;20226;-69
2023/12/04 04:55:02;;;;;;;6.68;6.18;;;;;;;0.17;55.51;95578.44;5095333;28;20203;-69
2023/12/04 04:57:35;;;;;;;6.60;6.10;;;;;;;0.20;55.78;95574.38;5095250;28;20270;-69
2023/12/04 05:00:02;;;;;;;6.78;6.28;;;;;;;0.19;56.12;95576.28;5077580;28;20709;-69
2023/12/04 05:02:29;;;;;;;6.22;5.72;;;;;;;0.13;55.49;95573.84;5078298;28;20231;-69
2023/12/04 05:04:56;;;;;;;6.13;5.70;;;;;;;0.12;56.15;95578.44;5095041;28;20647;-69
2023/12/04 05:07:24;;;;;;;6.25;5.85;;;;;;;0.10;56.59;95574.38;5078070;28;20261;-69
2023/12/04 05:09:54;;;;;;;6.43;5.93;;;;;;;0.08;56.68;95579.28;5077432;28;20196;-69
2023/12/04 05:12:23;;;;;;;6.78;6.28;;;;;;;0.05;56.69;95583.34;5077416;28;20207;-69
2023/12/04 05:14:54;;;;;;;6.03;5.63;;;;;;;0.01;56.59;95582.28;5095284;28;20225;-68
2023/12/04 05:17:22;;;;;;;6.60;6.10;;;;;;;-0.01;56.35;95587.16;5077841;28;20254;-69
2023/12/04 05:19:52;;;;;;;7.05;6.45;;;;;;;-0.07;56.42;95599.09;5077827;28;20261;-68
2023/12/04 05:22:18;;;;;;;7.10;6.60;;;;;;;-0.11;57.25;95598.00;5077802;28;20204;-73
2023/12/04 05:24:45;;;;;;;6.70;6.20;;;;;;;-0.09;57.03;95599.34;5077383;28;20691;-71
2023/12/04 05:27:17;;;;;;;7.30;6.80;;;;;;;-0.07;58.18;95593.69;5095038;28;20269;-70
2023/12/04 05:29:44;;;;;;;7.00;6.53;;;;;;;-0.08;57.42;95590.13;5094753;28;20282;-70
2023/12/04 05:32:12;;;;;;;6.60;5.90;;;;;;;-0.06;57.79;95587.97;5095898;28;20223;-70
2023/12/04 05:34:39;;;;;;;6.55;5.80;;;;;;;-0.05;57.53;95595.00;5095012;28;20231;-70
2023/12/04 05:37:06;;;;;;;5.80;5.40;;;;;;;-0.11;57.63;95606.97;5095785;28;20248;-69
2023/12/04 05:39:33;;;;;;;6.78;6.18;;;;;;;-0.14;58.06;95604.81;5079970;28;20235;-70
2023/12/04 05:42:00;;;;;;;6.93;6.32;;;;;;;-0.16;57.66;95598.81;5098870;28;20185;-70
2023/12/04 05:44:27;;;;;;;8.70;7.97;;;;;;;-0.18;58.10;95603.72;5081034;28;20226;-70
2023/12/04 05:46:54;;;;;;;8.05;7.45;;;;;;;-0.15;58.01;95599.63;5098907;28;20279;-70
2023/12/04 05:49:23;;;;;;;7.63;7.03;;;;;;;-0.16;58.17;95606.94;5098715;28;20219;-69
2023/12/04 05:51:50;;;;;;;7.20;6.70;;;;;;;-0.19;57.92;95603.97;5098884;28;20246;-69
2023/12/04 05:54:17;;;;;;;8.30;7.60;;;;;;;-0.20;58.31;95611.31;5081416;28;20235;-70
2023/12/04 05:56:44;;;;;;;8.00;7.40;;;;;;;-0.23;58.34;95613.75;5098896;28;20243;-70
2023/12/04 05:59:13;;;;;;;7.80;7.10;;;;;;;-0.26;58.64;95610.47;5081153;28;20230;-69
2023/12/04 06:01:40;;;;;;;7.63;7.03;;;;;;;-0.29;58.31;95607.50;5081499;28;20215;-69
2023/12/04 06:04:08;;;;;;;7.18;6.60;;;;;;;-0.31;58.76;95617.81;5098686;28;20219;-69
2023/12/04 06:06:40;;;;;;;7.70;7.10;;;;;;;-0.31;58.56;95615.09;5081342;28;20197;-69
2023/12/04 06:09:09;;;;;;;7.15;6.63;;;;;;;-0.26;58.45;95617.78;5081142;28;20224;-69
2023/12/04 06:11:36;;;;;;;7.97;7.38;;;;;;;-0.22;58.45;95609.94;5098646;28;20208;-69
2023/12/04 06:14:04;;;;;;;7.80;7.30;;;;;;;-0.19;59.03;95618.34;5095984;28;20263;-70
2023/12/04 06:16:31;;;;;;;8.15;7.55;;;;;;;-0.15;58.27;95622.13;5080280;28;20262;-71
2023/12/04 06:18:58;;;;;;;7.55;6.95;;;;;;;-0.16;58.70;95628.66;5080492;28;20220;-70
2023/12/04 06:21:26;;;;;;;7.78;7.18;;;;;;;-0.14;58.34;95631.09;5080449;28;20303;-73
2023/12/04 06:23:58;;;;;;;7.97;7.38;;;;;;;-0.11;58.73;95623.25;5080782;28;20196;-71
2023/12/04 06:26:26;;;;;;;8.60;7.90;;;;;;;-0.05;59.00;95627.56;5098147;28;20195;-71
2023/12/04 06:28:55;;;;;;;9.00;8.25;;;;;;;-0.01;58.92;95633.25;5081095;28;20188;-71
2023/12/04 06:31:31;;;;;;;8.98;8.27;;;;;;;-0.01;58.13;95635.97;5098021;28;20212;-72
2023/12/04 06:33:58;;;;;;;9.52;8.73;;;;;;;-0.01;58.50;95638.66;5080611;28;20196;-71
2023/12/04 06:36:25;;;;;;;8.98;8.27;;;;;;;0.04;58.35;95641.41;5080895;28;20315;-70
2023/12/04 06:38:55;;;;;;;7.97;7.38;;;;;;;0.08;58.25;95644.38;5098147;28;20582;-71
2023/12/04 06:41:24;;;;;;;8.25;7.63;;;;;;;0.10;57.48;95643.00;5098266;28;20188;-71
2023/12/04 06:43:51;;;;;;;8.63;8.00;;;;;;;0.11;57.50;95641.09;5097910;28;20208;-71
2023/12/04 06:46:18;;;;;;;8.65;7.95;;;;;;;0.11;57.67;95652.78;5098136;28;20222;-71
2023/12/04 06:48:46;;;;;;;9.55;8.85;;;;;;;0.12;57.30;95664.44;5097516;28;20235;-70
2023/12/04 06:51:13;;;;;;;8.43;7.80;;;;;;;0.18;57.71;95652.50;5078300;28;20220;-72
2023/12/04 06:53:40;;;;;;;7.97;7.32;;;;;;;0.22;57.19;95657.13;5097893;28;20212;-71
2023/12/04 06:56:13;;;;;;;8.23;7.63;;;;;;;0.27;57.59;95663.63;5080038;28;20204;-71
2023/12/04 06:58:40;;;;;;;7.50;6.90;;;;;;;0.29;56.89;95664.16;5080444;28;20193;-71
2023/12/04 07:01:07;;;;;;;7.93;7.32;;;;;;;0.33;57.65;95659.81;5080296;28;20193;-70
2023/12/04 07:03:34;;;;;;;8.70;8.00;;;;;;;0.31;57.61;95659.28;5080546;28;20192;-71
2023/12/04 07:06:01;;;;;;;7.97;7.28;;;;;;;0.35;57.47;95672.00;5097683;28;20284;-71
2023/12/04 07:08:28;;;;;;;7.80;7.20;;;;;;;0.42;57.40;95653.53;5097441;28;20227;-70
2023/12/04 07:10:59;;;;;;;7.32;6.82;;;;;;;0.44;56.79;95670.38;5097215;28;20220;-70
2023/12/04 07:13:30;;;;;;;9.10;8.38;;;;;;;0.45;56.81;95666.56;5079926;28;20192;-71
2023/12/04 07:15:58;;;;;;;9.20;8.43;;;;;;;0.43;56.59;95659.78;5097339;28;20275;-70
2023/12/04 07:18:28;;;;;;;8.55;7.90;;;;;;;0.47;56.95;95667.13;5079717;28;20216;-70
2023/12/04 07:20:57;;;;;;;7.82;7.28;;;;;;;0.53;56.46;95665.19;5096891;28;20184;-71
2023/12/04 07:23:26;;;;;;;8.10;7.40;;;;;;;0.55;56.06;95668.47;5097651;28;20177;-71
2023/12/04 07:25:53;;;;;;;8.30;7.70;;;;;;;0.58;55.71;95673.34;5097143;28;20208;-72
2023/12/04 07:28:21;;;;;;;8.02;7.35;;;;;;;0.56;57.25;95669.28;5097446;28;20228;-72
2023/12/04 07:30:50;;;;;;;8.40;7.60;;;;;;;0.88;58.37;95674.34;5096854;28;20193;-71
2023/12/04 07:33:17;;;;;;;8.30;7.60;;;;;;;1.15;58.14;95674.75;5079516;28;20196;-71
2023/12/04 07:35:45;;;;;;;8.25;7.55;;;;;;;1.39;58.54;95674.13;5096423;28;20204;-71
2023/12/04 07:38:12;;;;;;;8.32;7.63;;;;;;;1.51;57.93;95674.59;5079244;28;20219;-72
2023/12/04 07:40:43;;;;;;;7.65;7.05;;;;;;;1.51;57.51;95668.34;5097083;28;20188;-71
2023/12/04 07:43:15;;;;;;;7.38;6.78;;;;;;;1.58;57.99;95669.66;5096731;28;20181;-71
2023/12/04 07:45:46;;;;;;;7.28;6.78;;;;;;;1.57;57.07;95668.03;5079340;28;20203;-72
2023/12/04 07:48:16;;;;;;;7.15;6.65;;;;;;;1.63;57.03;95664.19;5079004;28;20269;-71
2023/12/04 07:50:43;;;;;;;7.18;6.60;;;;;;;1.69;56.50;95660.34;5079202;28;20218;-70
2023/12/04 07:53:13;;;;;;;6.72;6.22;;;;;;;1.70;55.95;95661.16;5078436;28;20628;-68
2023/12/04 07:55:43;;;;;;;6.68;6.18;;;;;;;1.68;54.95;95663.34;5097167;28;20237;-69
2023/12/04 07:58:11;;;;;;;6.40;6.00;;;;;;;1.67;55.12;95670.69;5079070;28;20228;-71
2023/12/04 08:00:40;;;;;;;6.15;5.65;;;;;;;1.64;55.36;95670.44;5078698;28;20254;-71
2023/12/04 08:03:10;;;;;;;6.75;6.25;;;;;;;1.82;57.13;95682.56;5095791;28;20184;-71
2023/12/04 08:05:39;;;;;;;6.50;6.00;;;;;;;1.97;58.03;95682.47;5079220;28;20196;-71
2023/12/04 08:08:06;;;;;;;6.13;5.72;;;;;;;2.14;57.72;95682.03;5078523;28;20222;-71
2023/12/04 08:10:34;;;;;;;6.05;5.65;;;;;;;2.23;53.70;95691.22;5079082;28;20196;-71
2023/12/04 08:13:01;;;;;;;5.05;4.68;;;;;;;2.34;54.23;95690.06;5078697;28;20246;-71
2023/12/04 08:15:28;;;;;;;4.60;4.20;;;;;;;2.47;53.00;95691.31;5059502;28;20256;-69
2023/12/04 08:17:57;;;;;;;4.72;4.32;;;;;;;2.48;51.31;95682.03;5059271;28;20209;-70
2023/12/04 08:20:28;;;;;;;4.38;4.07;;;;;;;2.64;52.14;95683.50;5075998;28;20185;-69
2023/12/04 08:22:58;;;;;;;5.18;4.70;;;;;;;2.67;49.59;95684.03;5075705;28;20181;-69
2023/12/04 08:25:26;;;;;;;5.45;5.00;;;;;;;2.80;52.37;95681.44;5075575;28;20197;-68
2023/12/04 08:27:53;;;;;;;5.72;5.32;;;;;;;2.90;51.72;95680.50;5074768;28;20225;-68
2023/12/04 08:30:23;;;;;;;4.88;4.57;;;;;;;2.99;50.12;95677.97;5075209;28;20209;-68
2023/12/04 08:32:51;;;;;;;4.38;4.07;;;;;;;3.08;48.74;95687.94;5058046;28;20700;-68
2023/12/04 08:35:21;;;;;;;4.47;4.18;;;;;;;3.07;48.18;95678.13;5057487;28;20244;-70
2023/12/04 08:37:48;;;;;;;4.35;4.05;;;;;;;3.24;51.80;95676.88;5075248;28;20220;-70
2023/12/04 08:40:22;;;;;;;4.50;4.20;;;;;;;3.32;49.51;95685.19;5057818;28;20220;-70
2023/12/04 08:42:49;;;;;;;4.22;3.92;;;;;;;3.41;49.76;95681.81;5058065;28;20283;-70
2023/12/04 08:45:16;;;;;;;4.28;3.97;;;;;;;3.50;48.71;95683.63;5057997;28;20209;-70
2023/12/04 08:47:44;;;;;;;4.90;4.50;;;;;;;3.28;47.22;95678.72;5075585;28;20181;-71
2023/12/04 08:50:11;;;;;;;5.00;4.60;;;;;;;3.32;48.09;95681.66;5074242;28;20213;-72
2023/12/04 08:52:41;;;;;;;5.28;4.88;;;;;;;3.50;49.55;95680.88;5075443;28;20503;-71
2023/12/04 08:55:11;;;;;;;5.32;4.93;;;;;;;3.63;49.23;95676.59;5075613;28;20232;-71
2023/12/04 08:57:44;;;;;;;4.75;4.45;;;;;;;3.75;47.39;95666.09;5075293;28;20197;-70
2023/12/04 09:00:14;;;;;;;4.80;4.47;;;;;;;3.90;50.63;95662.31;5075762;28;20181;-70
2023/12/04 09:02:43;;;;;;;4.60;4.20;;;;;;;3.94;47.18;95663.34;5057776;28;20233;-71
2023/12/04 09:05:14;;;;;;;4.97;4.57;;;;;;;3.91;48.30;95660.41;5075477;28;20189;-71
2023/12/04 09:07:42;;;;;;;4.63;4.32;;;;;;;3.96;47.56;95665.78;5075629;28;20189;-71
2023/12/04 09:10:09;;;;;;;5.15;4.75;;;;;;;4.03;47.94;95647.09;5074911;28;20605;-71
2023/12/04 09:12:39;;;;;;;4.82;4.50;;;;;;;4.18;48.33;95640.59;5075274;28;20227;-71
2023/12/04 09:15:08;;;;;;;4.38;4.07;;;;;;;4.29;46.81;95650.25;5092169;28;20560;-71
2023/12/04 09:17:39;;;;;;;5.00;4.60;;;;;;;4.05;44.93;95642.16;5099543;28;20251;-70
2023/12/04 09:20:06;;;;;;;4.57;4.28;;;;;;;3.95;46.01;95640.41;5099481;28;20245;-70
2023/12/04 09:22:38;;;;;;;4.70;4.40;;;;;;;4.06;47.60;95641.84;5081364;28;20208;-71
2023/12/04 09:25:06;;;;;;;5.55;5.15;;;;;;;4.25;47.61;95641.03;5082244;28;20204;-69
2023/12/04 09:27:36;;;;;;;4.57;4.20;;;;;;;4.44;46.79;95638.25;5099088;28;20181;-69
2023/12/04 09:30:06;;;;;;;4.68;4.28;;;;;;;4.63;46.92;95636.25;5099318;28;20189;-68
2023/12/04 09:32:35;;;;;;;4.18;3.88;;;;;;;4.72;45.80;95637.19;5099655;28;20180;-68
2023/12/04 09:35:04;;;;;;;4.47;4.18;;;;;;;4.80;45.16;95638.41;5099582;28;20265;-69
2023/12/04 09:37:33;;;;;;;4.63;4.32;;;;;;;4.94;44.61;95632.94;5081479;28;20254;-68
2023/12/04 09:40:00;;;;;;;4.30;4.00;;;;;;;4.98;44.86;95633.97;5099258;28;20199;-68
2023/12/04 09:42:30;;;;;;;5.28;4.88;;;;;;;5.13;45.85;95632.84;5081417;28;20596;-68
2023/12/04 09:44:57;;;;;;;4.45;4.05;;;;;;;4.97;43.80;95629.59;5081654;28;20291;-69
2023/12/04 09:47:26;;;;;;;4.70;4.30;;;;;;;4.90;44.90;95626.47;5082051;28;20219;-69
2023/12/04 09:49:55;;;;;;;3.90;3.70;;;;;;;5.05;45.31;95624.25;5081671;28;20503;-68
2023/12/04 09:52:22;;;;;;;4.65;4.25;;;;;;;5.13;44.80;95620.00;5082216;28;20188;-71
2023/12/04 09:54:52;;;;;;;4.53;4.22;;;;;;;5.23;43.64;95608.03;5081207;28;20285;-71
2023/12/04 09:57:19;;;;;;;5.97;5.57;;;;;;;5.39;43.82;95606.59;5098872;28;20201;-71
2023/12/04 09:59:46;;;;;;;4.47;4.18;;;;;;;5.47;43.47;95605.03;5081084;28;20238;-71
2023/12/04 10:02:15;;;;;;;4.20;3.90;;;;;;;5.46;42.91;95609.72;5099017;28;20246;-72
2023/12/04 10:04:43;;;;;;;4.53;4.13;;;;;;;5.40;43.45;95600.00;5098411;28;20589;-69
2023/12/04 10:07:12;;;;;;;4.68;4.28;;;;;;;5.42;42.66;95605.97;5081322;28;20236;-68
2023/12/04 10:09:39;;;;;;;4.60;4.20;;;;;;;5.31;43.76;95604.56;5098115;28;20210;-69
2023/12/04 10:12:10;;;;;;;4.03;3.72;;;;;;;5.35;42.71;95597.38;5098652;28;20236;-69
2023/12/04 10:14:40;;;;;;;4.65;4.22;;;;;;;5.28;43.24;95613.38;5096426;28;20307;-69
2023/12/04 10:17:21;;;;;;;4.95;4.55;;;;;;;5.29;43.65;95607.59;5099068;28;20208;-71
2023/12/04 10:19:50;;;;;;;4.75;4.45;;;;;;;5.30;43.35;95608.41;5080604;28;20224;-72
2023/12/04 10:22:21;;;;;;;4.43;4.13;;;;;;;5.18;43.33;95600.72;5098389;28;20181;-71
2023/12/04 10:24:52;;;;;;;4.15;3.85;;;;;;;4.94;42.43;95600.97;5081348;28;20207;-71
2023/12/04 10:27:27;;;;;;;4.53;4.15;;;;;;;4.81;43.28;95599.03;5098476;28;20189;-73
2023/12/04 10:29:56;;;;;;;4.75;4.35;;;;;;;4.72;43.36;95590.75;5081595;28;20245;-73
2023/12/04 10:32:23;;;;;;;4.72;4.43;;;;;;;4.58;43.75;95588.00;5098724;28;20249;-73
2023/12/04 10:34:50;;;;;;;4.47;4.18;;;;;;;4.49;44.42;95586.25;5080842;28;20204;-72
2023/12/04 10:37:25;;;;;;;4.20;3.90;;;;;;;4.54;45.41;95580.72;5080931;28;20207;-73
2023/12/04 10:39:53;;;;;;;3.90;3.60;;;;;;;4.47;42.90;95580.28;5081477;28;20216;-72
2023/12/04 10:42:27;;;;;;;4.30;4.00;;;;;;;4.34;42.97;95573.69;5098591;28;20185;-72
2023/12/04 10:44:57;;;;;;;4.15;3.85;;;;;;;4.30;43.96;95572.66;5080692;28;20196;-71
2023/12/04 10:47:24;;;;;;;4.60;4.25;;;;;;;4.35;44.60;95567.91;5097979;28;20191;-69
2023/12/04 10:49:52;;;;;;;4.15;3.85;;;;;;;4.39;44.50;95578.22;5097488;28;20222;-70
2023/12/04 10:52:23;;;;;;;4.78;4.38;;;;;;;4.41;44.04;95574.09;5079571;28;20603;-72
2023/12/04 10:54:50;;;;;;;4.13;3.83;;;;;;;4.41;43.45;95571.38;5097910;28;20192;-73
2023/12/04 10:57:23;;;;;;;4.43;4.13;;;;;;;4.54;43.71;95575.25;5080281;28;20227;-72
2023/12/04 10:59:56;;;;;;;4.30;4.00;;;;;;;4.79;43.37;95587.56;5097872;28;20177;-73
2023/12/04 11:02:27;;;;;;;4.13;3.72;;;;;;;5.11;43.20;95577.66;5080224;28;20689;-72
2023/12/04 11:05:02;;;;;;;4.10;3.70;;;;;;;5.47;43.95;95578.50;5097881;28;20195;-72
2023/12/04 11:07:34;;;;;;;3.95;3.55;;;;;;;5.87;42.32;95575.94;5080069;28;20214;-72
2023/12/04 11:10:02;;;;;;;4.00;3.70;;;;;;;5.98;40.95;95568.31;5080427;28;20235;-72
2023/12/04 11:12:30;;;;;;;3.63;3.42;;;;;;;6.13;41.27;95564.38;5097790;28;20224;-72
2023/12/04 11:15:01;;;;;;;4.70;4.40;;;;;;;6.36;41.50;95562.44;5079705;28;20721;-72
2023/12/04 11:17:33;;;;;;;4.97;4.63;;;;;;;6.59;41.50;95557.72;5097370;28;20183;-72
2023/12/04 11:20:10;;;;;;;5.35;4.90;;;;;;;6.83;40.98;95558.16;5062979;28;20204;-72
2023/12/04 11:22:49;;;;;;;4.72;4.32;;;;;;;7.05;40.04;95548.22;5080342;28;20207;-73
2023/12/04 11:25:16;;;;;;;3.88;3.63;;;;;;;7.25;39.21;95544.84;5097640;28;20611;-72
2023/12/04 11:27:47;;;;;;;4.60;4.30;;;;;;;7.33;38.48;95538.56;5080015;28;20202;-73
2023/12/04 11:30:15;;;;;;;4.15;3.85;;;;;;;7.45;38.49;95543.44;5097592;28;20238;-72
2023/12/04 11:32:48;;;;;;;3.90;3.70;;;;;;;7.67;38.70;95535.06;5098235;28;20306;-72
2023/12/04 11:35:17;;;;;;;4.85;4.45;;;;;;;7.99;37.61;95530.19;5063733;28;20291;-72
2023/12/04 11:37:54;;;;;;;5.60;5.20;;;;;;;8.39;37.33;95517.06;5096733;28;20212;-72
2023/12/04 11:40:21;;;;;;;5.82;5.20;;;;;;;8.91;35.94;95524.28;5097862;28;20176;-72
2023/12/04 11:42:51;;;;;;;6.00;5.50;;;;;;;9.63;35.46;95520.44;5096753;28;20230;-71
2023/12/04 11:45:22;;;;;;;5.07;4.68;;;;;;;10.26;34.07;95516.81;5097104;28;20180;-71
2023/12/04 11:47:54;;;;;;;4.93;4.45;;;;;;;10.38;33.67;95505.81;5097668;28;20200;-73